Terminal Aerodrome Forecast
Issued by NWS

Home | Current Version | Previous Version | Text Only | Print | Product List | Glossary On
Versions: 1 2 3 4 5 6 7 8 9 10 11 12
000
FTUS45 KPSR 232300
TAFBLH
TAF
KBLH 232340Z 2400/2424 17006KT P6SM BKN250
     FM240200 22007KT P6SM BKN250
     FM241100 VRB06KT P6SM BKN250=

USA.gov is the U.S. government's official web portal to all federal, state and local government web resources and services.